METAR stanice u blizini

 

LYBE - Beograd / Surčin, Srbija
Ažurirano: 25/04/2019 10:30
Vedro
Vedro
 Pravac vetra JI
Vetar: JI 19 km/h
Temperatura: 22°C
Tačka rose: 12°C
Vlažnost: 53%
Pritisak: 1020 hPa
Pregled: Vedro
Vidljivost: greater than 10 km
2019/04/25 08:30 LYBE 250830Z 14010KT CAVOK 22/12 Q1020 NOSIG
LYBT - Beograd / Batajnica, Srbija
Ažurirano: 25/04/2019 10:30
Vedro
Vedro
 Pravac vetra JI
Vetar: JI 11 km/h
Temperatura: 22°C
Tačka rose: 11°C
Vlažnost: 50%
Pritisak: 1020 hPa
Pregled: Vedro
Vidljivost: greater than 10 km
2019/04/25 08:30 LYBT 250830Z 13006KT 070V180 CAVOK 22/11 Q1020 NOSIG
LYVR - Vršac, Srbija
Ažurirano: 25/04/2019 10:30
Vedro
Vedro
 Pravac vetra JI
Vetar: JI 35 km/h, Maks.: 54 km/h
Temperatura: 21°C
Tačka rose: 8°C
Vlažnost: 43%
Pritisak: 1021 hPa
Pregled: Vedro
Vidljivost: greater than 10 km
2019/04/25 08:30 LYVR 250830Z 14019G29KT CAVOK 21/08 Q1021 NOSIG
 
LYKV - Lađevci, Srbija
Ažurirano: 25/04/2019 10:30
Vedro
Vedro
 Pravac vetra JJI
Vetar: JJI 11 km/h
Temperatura: 19°C
Tačka rose: 11°C
Vlažnost: 60%
Pritisak: 1021 hPa
Pregled: Vedro
Vidljivost: greater than 10 km
2019/04/25 08:30 LYKV 250830Z 15006KT 110V190 CAVOK 19/11 Q1021 NOSIG
LYNI - Niš, Srbija
Ažurirano: 25/04/2019 10:30
Vedro
Vedro
 Pravac vetra varies
Vetar: varies 2 km/h
Temperatura: 20°C
Tačka rose: 9°C
Vlažnost: 49%
Pritisak: 1022 hPa
Pregled: Vedro
Vidljivost: greater than 10 km
2019/04/25 08:30 LYNI 250830Z VRB01KT CAVOK 20/09 Q1022 NOSIG
BKPR - Priština, Srbija
Ažurirano: 25/04/2019 10:30
Vedro
Vedro
 Pravac vetra J
Vetar: J 11 km/h
Temperatura: 18°C
Tačka rose: 10°C
Vlažnost: 60%
Pritisak: 1023 hPa
Pregled: Vedro
Vidljivost: greater than 10 km
2019/04/25 08:30 BKPR 250830Z 17006KT 120V200 CAVOK 18/10 Q1023 NOSIG
 
LHPP - Pecs / Pogany, Hungary
Ažurirano: 25/04/2019 10:15
Vedro
Vedro
 Pravac vetra JJZ
Vetar: JJZ 15 km/h
Temperatura: 19°C
Tačka rose: 12°C
Vlažnost: 64%
Pritisak: 1020 hPa
Pregled: Vedro
Vidljivost: greater than 10 km
2019/04/25 08:15 LHPP 250815Z 21008KT CAVOK 19/12 Q1020
LHUD - Szeged, Hungary
Ažurirano: 25/04/2019 01:45
NOT Current
Vedro
Vedro
 Pravac vetra JJI
Vetar: JJI 24 km/h
Temperatura: 16°C
Tačka rose: 8°C
Vlažnost: 59%
Pritisak: 1018 hPa
Pregled: Vedro
Vidljivost: greater than 10 km
2019/04/24 23:45 LHUD 242345Z 16013KT CAVOK 16/08 Q1018
LRTR - Timisoara, Romania
Ažurirano: 25/04/2019 10:30
Vedro
Vedro
 Pravac vetra J
Vetar: J 26 km/h
Temperatura: 22°C
Tačka rose: 9°C
Vlažnost: 44%
Pritisak: 1020 hPa
Pregled: Vedro
Vidljivost: greater than 10 km
2019/04/25 08:30 LRTR 250830Z 18014KT CAVOK 22/09 Q1020
 
LRCV - Craiova, Romania
Ažurirano: 25/04/2019 10:30
Vedro
Vedro
 Pravac vetra ISI
Vetar: ISI 11 km/h
Temperatura: 15°C
Tačka rose: 5°C
Vlažnost: 51%
Pritisak: 1024 hPa
Pregled: Vedro
Vidljivost: greater than 10 km
2019/04/25 08:30 LRCV 250830Z 06006KT 020V090 CAVOK 15/05 Q1024
LBSF - Sofia, Bulgaria
Ažurirano: 25/04/2019 10:30
Vedro
Vedro
 Pravac vetra IJI
Vetar: IJI 6 km/h
Temperatura: 17°C
Tačka rose: 9°C
Vlažnost: 59%
Pritisak: 1024 hPa
Pregled: Vedro
Vidljivost: greater than 10 km
2019/04/25 08:30 LBSF 250830Z 11003KT 040V180 CAVOK 17/09 Q1024 NOSIG
LWSK - Skoplje, Makedonija
Ažurirano: 25/04/2019 10:30
Vedro
Vedro
 Pravac vetra calm
Vetar: Tišina
Temperatura: 18°C
Tačka rose: 10°C
Vlažnost: 60%
Pritisak: 1024 hPa
Pregled: Vedro
Vidljivost: greater than 10 km
2019/04/25 08:30 LWSK 250830Z 00000KT CAVOK 18/10 Q1024 NOSIG
 
LYPG - Podgorica, Crna Gora
Ažurirano: 25/04/2019 10:30
Vedro
Vedro
 Pravac vetra varies
Vetar: varies 4 km/h
Temperatura: 22°C
Tačka rose: 9°C
Vlažnost: 44%
Pritisak: 1022 hPa
Pregled: Vedro
Vidljivost: greater than 10 km
2019/04/25 08:30 LYPG 250830Z VRB02KT CAVOK 22/09 Q1022 NOSIG
LQSA - Sarajevo, Bosna i Hercegovina
Ažurirano: 25/04/2019 10:30
Vedro
Vedro
 Pravac vetra ZSZ
Vetar: ZSZ 6 km/h
Temperatura: 21°C
Tačka rose: 10°C
Vlažnost: 50%
Pritisak: 1021 hPa
Pregled: Vedro
Vidljivost: greater than 10 km
2019/04/25 08:30 LQSA 250830Z 29003KT 250V350 CAVOK 21/10 Q1021 NOSIG
LDOS - Osijek, Hrvatksa
Ažurirano: 25/04/2019 10:30
Vedro
Vedro
 Pravac vetra J
Vetar: J 13 km/h
Temperatura: 21°C
Tačka rose: 12°C
Vlažnost: 57%
Pritisak: 1020 hPa
Pregled: Vedro
Vidljivost: greater than 10 km
2019/04/25 08:30 LDOS 250830Z 18007KT CAVOK 21/12 Q1020